Time;durP1;ratioP1;P1;durP2;ratioP2;P2;SDS_P1;SDS_P2;PMS_P1;PMS_P2;Temp;Humidity;BMP_temperature;BMP_pressure;BME280_temperature;BME280_humidity;BME280_pressure;Samples;Min_cycle;Max_cycle;Signal;HPM_P1;HPM_P2
2022/10/30 00:00:42;;;;;;;9.38;3.90;;;;;;;14.20;100.00;101428.75;6249412;28;20049;-74
2022/10/30 00:03:45;;;;;;;5.28;3.63;;;;;;;14.17;100.00;101434.22;6248795;28;20417;-73
2022/10/30 00:06:46;;;;;;;8.30;3.20;;;;;;;14.18;100.00;101437.72;6249535;28;20516;-74
2022/10/30 00:09:48;;;;;;;7.93;3.42;;;;;;;14.20;100.00;101420.81;6248777;28;20041;-74
2022/10/30 00:12:49;;;;;;;9.32;3.28;;;;;;;14.20;100.00;101414.66;6249180;28;20053;-73
2022/10/30 00:15:52;;;;;;;8.70;3.47;;;;;;;14.23;100.00;101421.59;6248846;28;20053;-74
2022/10/30 00:18:55;;;;;;;9.52;3.22;;;;;;;14.24;100.00;101432.06;6248988;28;20048;-73
2022/10/30 00:21:57;;;;;;;7.32;3.92;;;;;;;14.22;100.00;101436.59;6248204;28;20057;-74
2022/10/30 00:24:58;;;;;;;11.00;3.45;;;;;;;14.21;100.00;101432.22;6248419;28;20052;-73
2022/10/30 00:28:00;;;;;;;4.57;2.97;;;;;;;14.20;100.00;101428.75;6249010;28;20501;-74
2022/10/30 00:31:02;;;;;;;7.57;3.55;;;;;;;14.20;100.00;101435.81;6248296;28;20049;-74
2022/10/30 00:34:05;;;;;;;6.25;2.75;;;;;;;14.20;100.00;101439.31;6248619;28;20049;-74
2022/10/30 00:37:06;;;;;;;7.38;3.58;;;;;;;14.21;100.00;101414.56;6248602;28;20049;-74
2022/10/30 00:40:12;;;;;;;6.57;3.40;;;;;;;14.23;100.00;101418.94;6248125;28;20045;-74
2022/10/30 00:43:33;;;;;;;6.63;3.15;;;;;;;14.21;100.00;101417.22;6248487;28;20520;-74
2022/10/30 00:46:39;;;;;;;5.40;3.60;;;;;;;14.17;100.00;101418.38;6248089;28;20056;-74
2022/10/30 00:49:50;;;;;;;11.10;3.65;;;;;;;14.15;100.00;101419.38;6247971;28;20045;-74
2022/10/30 00:52:57;;;;;;;8.52;2.95;;;;;;;14.11;100.00;101408.13;6248492;28;20083;-73
2022/10/30 00:56:05;;;;;;;6.10;3.28;;;;;;;14.11;100.00;101421.34;6247895;28;20053;-74
2022/10/30 00:59:10;;;;;;;6.18;3.35;;;;;;;14.09;100.00;101409.16;6248157;28;20057;-74
2022/10/30 01:02:12;;;;;;;8.43;3.35;;;;;;;14.06;100.00;101404.91;6247770;28;20053;-74
2022/10/30 01:05:18;;;;;;;10.93;3.33;;;;;;;14.06;100.00;101404.03;6247597;28;20053;-74
2022/10/30 01:08:20;;;;;;;5.30;3.50;;;;;;;14.05;100.00;101419.06;6247848;28;20045;-73
2022/10/30 01:11:21;;;;;;;8.32;3.50;;;;;;;14.06;100.00;101404.91;6247455;28;20508;-74
2022/10/30 01:14:24;;;;;;;9.70;3.50;;;;;;;14.06;100.00;101407.53;6247537;28;20053;-74
2022/10/30 01:17:42;;;;;;;5.38;2.67;;;;;;;14.08;100.00;101402.16;6247454;28;20052;-73
2022/10/30 01:21:10;;;;;;;5.13;2.95;;;;;;;14.08;100.00;101399.50;6247318;28;20065;-73
2022/10/30 01:24:32;;;;;;;6.10;3.15;;;;;;;14.08;100.00;101400.38;6247172;28;20053;-74
2022/10/30 01:27:41;;;;;;;8.13;3.28;;;;;;;14.07;100.00;101390.72;6247153;28;20425;-74
2022/10/30 01:30:56;;;;;;;8.90;3.85;;;;;;;14.09;100.00;101395.94;6247239;28;20045;-74
2022/10/30 01:34:09;;;;;;;6.05;3.08;;;;;;;14.08;100.00;101403.03;6246230;28;20041;-73
2022/10/30 01:37:19;;;;;;;5.88;3.22;;;;;;;14.08;100.00;101408.31;6247358;28;20060;-74
2022/10/30 01:40:20;;;;;;;6.15;3.15;;;;;;;14.10;100.00;101414.34;6246796;28;20076;-73
2022/10/30 01:43:22;;;;;;;8.05;3.50;;;;;;;14.11;100.00;101418.69;6246838;28;20056;-74
2022/10/30 01:46:38;;;;;;;7.07;3.35;;;;;;;14.14;100.00;101415.03;6246525;28;20053;-74
2022/10/30 01:50:01;;;;;;;7.25;3.20;;;;;;;14.14;100.00;101415.03;6246628;28;20393;-74
2022/10/30 01:53:13;;;;;;;10.30;3.30;;;;;;;14.10;100.00;101411.72;6247208;28;20060;-74
2022/10/30 01:56:22;;;;;;;6.40;2.67;;;;;;;14.10;100.00;101417.00;6246423;28;20064;-74
2022/10/30 01:59:28;;;;;;;4.47;2.80;;;;;;;14.10;100.00;101427.56;6247118;28;20064;-74
2022/10/30 02:02:31;;;;;;;10.15;2.97;;;;;;;14.10;100.00;101424.94;6246536;28;20057;-74
2022/10/30 02:05:38;;;;;;;7.10;2.75;;;;;;;14.07;100.00;101430.38;6246465;28;20555;-74
2022/10/30 02:08:41;;;;;;;5.85;2.80;;;;;;;14.05;100.00;101428.78;6246785;28;20053;-73
2022/10/30 02:11:44;;;;;;;6.50;3.17;;;;;;;14.05;100.00;101431.41;6246076;28;20069;-73
2022/10/30 02:14:49;;;;;;;7.68;3.05;;;;;;;14.02;100.00;101427.16;6246264;28;20420;-74
2022/10/30 02:17:51;;;;;;;8.70;3.47;;;;;;;13.97;100.00;101423.91;6246277;28;20052;-74
2022/10/30 02:20:53;;;;;;;7.47;3.33;;;;;;;13.93;100.00;101427.66;6246440;28;20057;-73
2022/10/30 02:23:55;;;;;;;8.00;3.42;;;;;;;13.87;100.00;101430.66;6245953;28;20049;-74
2022/10/30 02:26:56;;;;;;;7.50;3.58;;;;;;;13.84;100.00;101426.41;6246610;28;20053;-74
2022/10/30 02:29:59;;;;;;;7.82;2.55;;;;;;;13.80;100.00;101430.16;6245851;28;20045;-74
2022/10/30 02:33:00;;;;;;;4.43;2.75;;;;;;;13.74;100.00;101425.22;6246480;28;20564;-74
2022/10/30 02:36:03;;;;;;;7.93;3.72;;;;;;;13.72;100.00;101421.81;6245943;28;20057;-74
2022/10/30 02:39:05;;;;;;;7.65;2.83;;;;;;;13.69;100.00;101432.53;6246294;28;20049;-74
2022/10/30 02:42:07;;;;;;;7.15;2.70;;;;;;;13.66;100.00;101432.69;6245960;28;20049;-73
2022/10/30 02:45:10;;;;;;;10.30;3.10;;;;;;;13.64;100.00;101427.50;6249150;28;20076;-73
2022/10/30 02:48:11;;;;;;;5.68;3.03;;;;;;;13.60;100.00;101433.06;6251007;28;20158;-74
2022/10/30 02:51:14;;;;;;;6.28;2.97;;;;;;;13.56;100.00;101431.50;6250386;28;20049;-74
2022/10/30 02:54:15;;;;;;;6.10;2.50;;;;;;;13.53;100.00;101431.66;6250860;28;20045;-74
2022/10/30 02:57:17;;;;;;;10.27;3.38;;;;;;;13.50;100.00;101423.94;6250701;28;20493;-73
2022/10/30 03:00:18;;;;;;;7.13;2.90;;;;;;;13.44;100.00;101433.91;6250727;28;20045;-73
2022/10/30 03:03:20;;;;;;;7.65;3.38;;;;;;;13.41;100.00;101427.94;6250701;28;20489;-74
2022/10/30 03:06:23;;;;;;;6.65;3.03;;;;;;;13.38;100.00;101422.81;6250300;28;20053;-74
2022/10/30 03:09:24;;;;;;;4.60;2.53;;;;;;;13.33;100.00;101424.84;6250643;28;20144;-74
2022/10/30 03:12:26;;;;;;;6.65;3.47;;;;;;;13.30;100.00;101425.84;6250357;28;20053;-74
2022/10/30 03:15:27;;;;;;;7.35;2.85;;;;;;;13.21;100.00;101421.03;6250225;28;20498;-73
2022/10/30 03:18:29;;;;;;;5.38;3.00;;;;;;;13.18;100.00;101422.06;6248923;28;20057;-73
2022/10/30 03:21:31;;;;;;;5.80;3.25;;;;;;;13.16;100.00;101423.06;6250231;28;20049;-74
2022/10/30 03:24:33;;;;;;;8.68;2.88;;;;;;;13.11;100.00;101419.81;6250015;28;20053;-73
2022/10/30 03:27:34;;;;;;;9.60;3.30;;;;;;;13.06;100.00;101420.06;6250284;28;20683;-74
2022/10/30 03:30:36;;;;;;;8.25;2.85;;;;;;;13.05;100.00;101430.72;6249713;28;20070;-74
2022/10/30 03:33:38;;;;;;;5.80;3.13;;;;;;;13.00;100.00;101428.31;6250138;28;20052;-74
2022/10/30 03:36:40;;;;;;;9.10;3.08;;;;;;;12.99;100.00;101426.63;6249748;28;20052;-74
2022/10/30 03:39:42;;;;;;;9.40;3.08;;;;;;;12.97;100.00;101436.38;6249794;28;20068;-74
2022/10/30 03:42:43;;;;;;;9.35;3.10;;;;;;;12.93;100.00;101424.28;6250087;28;20053;-74
2022/10/30 03:45:48;;;;;;;5.32;2.90;;;;;;;12.89;100.00;101425.38;6249402;28;20053;-73
2022/10/30 03:48:50;;;;;;;8.02;2.97;;;;;;;12.87;100.00;101422.81;6249800;28;20053;-74
2022/10/30 03:51:53;;;;;;;5.45;2.75;;;;;;;12.84;100.00;101422.13;6249310;28;20049;-73
2022/10/30 03:54:54;;;;;;;7.70;2.55;;;;;;;12.83;100.00;101429.19;6248936;28;20052;-74
2022/10/30 03:57:55;;;;;;;5.68;3.17;;;;;;;12.85;100.00;101437.00;6249059;28;20053;-73
2022/10/30 04:01:01;;;;;;;9.75;3.45;;;;;;;12.84;100.00;101437.94;6249423;28;20053;-74
2022/10/30 04:04:02;;;;;;;5.63;2.88;;;;;;;12.85;100.00;101429.97;6249198;28;20114;-74
2022/10/30 04:07:05;;;;;;;8.55;3.33;;;;;;;12.84;100.00;101422.97;6249168;28;20053;-73
2022/10/30 04:10:07;;;;;;;10.30;3.47;;;;;;;12.84;100.00;101425.59;6249092;28;20049;-73
2022/10/30 04:13:11;;;;;;;6.75;3.28;;;;;;;12.82;100.00;101419.56;6249165;28;20053;-74
2022/10/30 04:16:12;;;;;;;8.10;3.03;;;;;;;12.80;100.00;101431.97;6248846;28;20050;-73
2022/10/30 04:19:15;;;;;;;7.45;2.97;;;;;;;12.78;100.00;101425.09;6249034;28;20061;-73
2022/10/30 04:22:17;;;;;;;9.48;3.47;;;;;;;12.76;100.00;101416.38;6248823;28;20544;-73
2022/10/30 04:25:19;;;;;;;11.27;2.97;;;;;;;12.77;100.00;101415.47;6248641;28;20042;-73
2022/10/30 04:28:20;;;;;;;7.40;3.00;;;;;;;12.75;100.00;101410.25;6249029;28;20056;-73
2022/10/30 04:31:22;;;;;;;8.77;3.78;;;;;;;12.75;100.00;101420.81;6248320;28;20448;-73
2022/10/30 04:34:23;;;;;;;9.13;2.80;;;;;;;12.76;100.00;101424.28;6247539;28;20423;-73
2022/10/30 04:37:26;;;;;;;8.60;2.85;;;;;;;12.78;100.00;101425.94;6248228;28;20057;-73
2022/10/30 04:40:29;;;;;;;4.65;2.92;;;;;;;12.77;100.00;101426.03;6248573;28;20069;-73
2022/10/30 04:43:30;;;;;;;11.23;3.03;;;;;;;12.74;100.00;101418.25;6248613;28;20524;-73
2022/10/30 04:46:32;;;;;;;9.35;3.10;;;;;;;12.70;100.00;101428.97;6248208;28;20053;-74
2022/10/30 04:49:33;;;;;;;7.30;2.97;;;;;;;12.69;100.00;101423.78;6248559;28;20054;-73
2022/10/30 04:52:36;;;;;;;5.25;2.70;;;;;;;12.65;100.00;101425.72;6247884;28;20046;-74
2022/10/30 04:55:38;;;;;;;10.90;3.20;;;;;;;12.64;100.00;101428.44;6248132;28;20045;-73
2022/10/30 04:58:40;;;;;;;6.57;3.70;;;;;;;12.63;100.00;101432.00;6248002;28;20053;-74
2022/10/30 05:01:41;;;;;;;7.55;2.60;;;;;;;12.61;100.00;101429.44;6247809;28;20632;-74
2022/10/30 05:04:43;;;;;;;8.27;2.55;;;;;;;12.60;100.00;101424.25;6247710;28;20059;-73
2022/10/30 05:07:45;;;;;;;9.20;2.83;;;;;;;12.60;100.00;101429.53;6248029;28;20056;-74
2022/10/30 05:10:47;;;;;;;5.38;2.92;;;;;;;12.60;100.00;101424.25;6247502;28;20520;-74
2022/10/30 05:13:48;;;;;;;5.55;2.75;;;;;;;12.58;100.00;101421.69;6247721;28;20053;-74
2022/10/30 05:16:50;;;;;;;5.97;2.63;;;;;;;12.57;100.00;101427.03;6247823;28;20057;-73
2022/10/30 05:19:51;;;;;;;3.47;2.60;;;;;;;12.55;100.00;101427.13;6247183;28;20056;-74
2022/10/30 05:22:58;;;;;;;8.15;3.20;;;;;;;12.52;100.00;101418.50;6247676;28;20417;-73
2022/10/30 05:26:00;;;;;;;5.95;2.53;;;;;;;12.51;100.00;101422.94;6246896;28;20057;-74
2022/10/30 05:29:01;;;;;;;8.43;3.17;;;;;;;12.46;100.00;101422.31;6245789;28;20543;-73
2022/10/30 05:32:03;;;;;;;4.90;2.88;;;;;;;12.46;100.00;101424.94;6245303;28;20048;-73
2022/10/30 05:35:05;;;;;;;8.13;3.38;;;;;;;12.44;100.00;101419.75;6243591;28;20064;-74
2022/10/30 05:38:08;;;;;;;11.85;3.15;;;;;;;12.45;100.00;101423.25;6247100;28;20057;-74
2022/10/30 05:41:09;;;;;;;9.30;3.38;;;;;;;12.47;100.00;101428.44;6245184;28;20103;-74
2022/10/30 05:44:11;;;;;;;5.43;3.22;;;;;;;12.46;100.00;101432.00;6245294;28;20045;-73
2022/10/30 05:47:12;;;;;;;9.73;3.42;;;;;;;12.45;100.00;101425.88;6245430;28;20053;-73
2022/10/30 05:50:13;;;;;;;5.68;2.72;;;;;;;12.45;100.00;101431.16;6245087;28;20045;-74
2022/10/30 05:53:16;;;;;;;4.22;2.85;;;;;;;12.44;100.00;101429.41;6245522;28;20061;-73
2022/10/30 05:56:18;;;;;;;5.78;3.15;;;;;;;12.43;100.00;101436.47;6245152;28;20052;-74
2022/10/30 05:59:19;;;;;;;8.90;3.38;;;;;;;12.42;100.00;101436.56;6245244;28;20060;-73
2022/10/30 06:02:21;;;;;;;9.70;3.47;;;;;;;12.42;100.00;101437.41;6242613;28;20045;-73
2022/10/30 06:05:22;;;;;;;6.75;3.00;;;;;;;12.41;100.00;101442.78;6244741;28;20045;-74
2022/10/30 06:08:25;;;;;;;5.65;2.75;;;;;;;12.41;100.00;101442.78;6245125;28;20045;-73
2022/10/30 06:11:26;;;;;;;6.00;3.63;;;;;;;12.40;100.00;101436.66;6244704;28;20041;-73
2022/10/30 06:14:28;;;;;;;7.85;3.05;;;;;;;12.39;100.00;101442.84;6244828;28;20049;-73
2022/10/30 06:17:30;;;;;;;6.00;3.13;;;;;;;12.38;100.00;101441.13;6245093;28;20064;-73
2022/10/30 06:20:32;;;;;;;6.03;3.38;;;;;;;12.34;100.00;101449.28;6244311;28;20053;-73
2022/10/30 06:23:34;;;;;;;9.30;2.90;;;;;;;12.34;100.00;101451.91;6245103;28;20050;-73
2022/10/30 06:26:36;;;;;;;7.13;2.88;;;;;;;12.35;100.00;101448.34;6244419;28;20053;-73
2022/10/30 06:29:37;;;;;;;10.40;3.28;;;;;;;12.35;100.00;101446.59;6246137;28;20049;-74
2022/10/30 06:32:39;;;;;;;8.38;3.65;;;;;;;12.33;100.00;101448.41;6246020;28;20048;-74
2022/10/30 06:35:40;;;;;;;6.28;2.72;;;;;;;12.30;100.00;101443.28;6246244;28;20052;-74
2022/10/30 06:38:43;;;;;;;4.70;2.80;;;;;;;12.31;100.00;101454.69;6246247;28;20046;-73
2022/10/30 06:41:44;;;;;;;7.28;2.92;;;;;;;12.31;100.00;101458.19;6245969;28;20057;-74
2022/10/30 06:44:47;;;;;;;15.30;3.78;;;;;;;12.30;100.00;101459.09;6245991;28;20064;-73
2022/10/30 06:47:49;;;;;;;8.88;2.53;;;;;;;12.31;100.00;101462.59;6246198;28;20049;-74
2022/10/30 06:50:53;;;;;;;5.72;3.03;;;;;;;12.30;100.00;101463.53;6245613;28;20077;-73
2022/10/30 06:53:56;;;;;;;11.50;4.07;;;;;;;12.31;100.00;101466.09;6245809;28;20049;-73
2022/10/30 06:56:58;;;;;;;5.78;2.70;;;;;;;12.34;100.00;101468.56;6245663;28;20041;-73
2022/10/30 06:59:59;;;;;;;6.93;2.85;;;;;;;12.35;100.00;101472.94;6245364;28;20045;-73
2022/10/30 07:03:03;;;;;;;15.23;2.92;;;;;;;12.36;100.00;101469.38;6245697;28;20064;-73
2022/10/30 07:06:05;;;;;;;9.38;2.60;;;;;;;12.38;100.00;101462.22;6245000;28;20479;-73
2022/10/30 07:09:08;;;;;;;7.55;3.28;;;;;;;12.40;100.00;101472.72;6245679;28;20053;-73
2022/10/30 07:12:09;;;;;;;3.65;2.65;;;;;;;12.43;100.00;101467.25;6245397;28;20607;-73
2022/10/30 07:15:11;;;;;;;5.15;2.28;;;;;;;12.44;100.00;101474.25;6245610;28;20048;-73
2022/10/30 07:18:12;;;;;;;5.18;2.65;;;;;;;12.48;100.00;101472.31;6245609;28;20046;-74
2022/10/30 07:21:13;;;;;;;5.03;2.75;;;;;;;12.50;100.00;101479.22;6245381;28;20056;-73
2022/10/30 07:24:16;;;;;;;7.63;3.38;;;;;;;12.52;100.00;101480.00;6245249;28;20413;-73
2022/10/30 07:27:17;;;;;;;8.25;2.78;;;;;;;12.57;100.00;101485.88;6245436;28;20052;-74
2022/10/30 07:30:21;;;;;;;11.93;3.10;;;;;;;12.59;100.00;101486.69;6245057;28;20056;-73
2022/10/30 07:33:22;;;;;;;3.85;2.70;;;;;;;12.61;100.00;101476.03;6249406;28;20497;-74
2022/10/30 07:36:24;;;;;;;5.97;3.20;;;;;;;12.64;100.00;101474.13;6249182;28;20560;-73
2022/10/30 07:39:27;;;;;;;6.25;2.85;;;;;;;12.70;100.00;101478.22;6249325;28;20057;-73
2022/10/30 07:42:28;;;;;;;7.50;3.47;;;;;;;12.75;100.00;101475.34;6249697;28;20049;-73
2022/10/30 07:45:30;;;;;;;11.60;2.90;;;;;;;12.80;100.00;101483.88;6248765;28;20053;-73
2022/10/30 07:48:32;;;;;;;4.57;2.60;;;;;;;12.84;100.00;101481.00;6249723;28;20050;-74
2022/10/30 07:51:33;;;;;;;8.27;3.28;;;;;;;12.90;100.00;101479.84;6249417;28;20041;-74
2022/10/30 07:54:36;;;;;;;6.35;2.75;;;;;;;12.98;100.00;101487.34;6249476;28;20049;-73
2022/10/30 07:57:39;;;;;;;8.65;2.83;;;;;;;13.04;100.00;101493.19;6249635;28;20489;-74
2022/10/30 08:00:40;;;;;;;6.07;2.72;;;;;;;13.13;100.00;101494.50;6249133;28;20049;-74
2022/10/30 08:03:42;;;;;;;10.93;3.53;;;;;;;13.30;100.00;101506.84;6249098;28;20060;-73
2022/10/30 08:06:43;;;;;;;8.18;3.45;;;;;;;13.49;100.00;101512.88;6249595;28;20056;-73
2022/10/30 08:09:46;;;;;;;8.05;2.70;;;;;;;13.61;100.00;101509.56;6249287;28;20050;-74
2022/10/30 08:12:48;;;;;;;4.25;2.30;;;;;;;13.69;100.00;101515.28;6249361;28;20049;-74
2022/10/30 08:15:49;;;;;;;9.65;2.83;;;;;;;13.81;100.00;101515.56;6248981;28;20056;-74
2022/10/30 08:18:51;;;;;;;8.20;3.55;;;;;;;13.88;100.00;101523.06;6249400;28;20132;-73
2022/10/30 08:21:53;;;;;;;7.72;2.90;;;;;;;13.93;100.00;101525.44;6249214;28;20053;-73
2022/10/30 08:24:56;;;;;;;7.63;3.55;;;;;;;14.03;100.00;101523.13;6247237;28;20045;-73
2022/10/30 08:28:00;;;;;;;6.95;2.58;;;;;;;14.04;100.00;101528.38;6248148;28;20080;-73
2022/10/30 08:31:01;;;;;;;6.10;2.58;;;;;;;14.09;100.00;101528.09;6248282;28;20128;-73
2022/10/30 08:34:03;;;;;;;5.45;2.45;;;;;;;14.15;100.00;101536.53;6248469;28;20054;-73
2022/10/30 08:37:06;;;;;;;6.15;2.40;;;;;;;14.26;100.00;101533.31;6248689;28;20054;-73
2022/10/30 08:40:10;;;;;;;4.45;2.60;;;;;;;14.32;100.00;101534.75;6248102;28;20062;-73
2022/10/30 08:43:12;;;;;;;6.47;3.03;;;;;;;14.38;100.00;101531.75;6246639;28;20064;-73
2022/10/30 08:46:13;;;;;;;8.10;2.55;;;;;;;14.40;100.00;101535.19;6246527;28;20049;-73
2022/10/30 08:49:15;;;;;;;5.40;2.92;;;;;;;14.47;100.00;101547.94;6247286;28;20068;-73
2022/10/30 08:52:16;;;;;;;6.53;3.00;;;;;;;14.60;100.00;101545.50;6246404;28;20052;-73
2022/10/30 08:55:19;;;;;;;6.47;2.42;;;;;;;14.75;100.00;101542.91;6248109;28;20046;-73
2022/10/30 08:58:20;;;;;;;7.85;2.47;;;;;;;14.76;100.00;101542.81;6248173;28;20072;-73
2022/10/30 09:01:22;;;;;;;10.77;2.63;;;;;;;14.78;100.00;101540.94;6247840;28;20052;-73
2022/10/30 09:04:23;;;;;;;9.55;2.40;;;;;;;14.85;100.00;101544.94;6247730;28;20049;-73
2022/10/30 09:07:24;;;;;;;7.88;3.38;;;;;;;14.87;100.00;101536.91;6246199;28;20053;-74
2022/10/30 09:10:27;;;;;;;3.50;2.22;;;;;;;14.92;100.00;101546.25;6247370;28;20052;-73
2022/10/30 09:13:29;;;;;;;5.82;2.53;;;;;;;15.00;100.00;101550.25;6246294;28;20044;-73
2022/10/30 09:16:30;;;;;;;6.35;3.47;;;;;;;15.09;100.00;101549.72;6247059;28;20096;-73
2022/10/30 09:19:32;;;;;;;6.60;2.70;;;;;;;15.17;100.00;101547.44;6246078;28;20523;-73
2022/10/30 09:22:33;;;;;;;6.60;2.80;;;;;;;15.26;100.00;101544.28;6246234;28;20072;-73
2022/10/30 09:25:36;;;;;;;3.75;2.20;;;;;;;15.36;100.00;101541.91;6247216;28;20049;-74
2022/10/30 09:28:37;;;;;;;6.43;2.92;;;;;;;15.40;100.00;101538.16;6247546;28;20053;-73
2022/10/30 09:31:39;;;;;;;4.70;2.42;;;;;;;15.41;100.00;101540.69;6246402;28;20500;-73
2022/10/30 09:34:41;;;;;;;5.50;2.10;;;;;;;15.46;100.00;101540.41;6241963;28;20489;-73
2022/10/30 09:37:42;;;;;;;4.60;2.47;;;;;;;15.46;100.00;101530.66;6247103;28;20072;-73
2022/10/30 09:40:58;;;;;;;8.05;2.70;;;;;;;15.47;100.00;101529.72;6247068;28;20045;-73
2022/10/30 09:44:15;;;;;;;8.65;2.40;;;;;;;15.55;100.00;101537.19;6246594;28;20432;-73
2022/10/30 09:47:28;;;;;;;8.05;2.75;;;;;;;15.62;100.00;101525.25;6246725;28;20068;-73
2022/10/30 09:50:33;;;;;;;7.30;2.95;;;;;;;15.70;100.00;101525.66;6246352;28;20057;-73
2022/10/30 09:53:45;;;;;;;4.68;2.38;;;;;;;15.75;100.00;101528.03;6246432;28;20049;-73
2022/10/30 09:56:53;;;;;;;8.90;2.10;;;;;;;15.90;100.00;101526.25;6246800;28;20583;-73
2022/10/30 10:00:04;;;;;;;4.47;2.20;;;;;;;15.97;100.00;101530.19;6246243;28;20049;-73
2022/10/30 10:03:17;;;;;;;3.25;2.30;;;;;;;16.00;100.00;101527.34;6245249;28;20050;-73
2022/10/30 10:06:20;;;;;;;6.47;2.75;;;;;;;16.10;100.00;101515.19;6244207;28;20056;-73
2022/10/30 10:09:25;;;;;;;6.85;3.40;;;;;;;16.16;100.00;101520.09;6244139;28;20057;-73
2022/10/30 10:12:33;;;;;;;6.22;2.25;;;;;;;16.20;100.00;101520.75;6244286;28;20429;-73
2022/10/30 10:15:40;;;;;;;9.25;3.90;;;;;;;16.18;100.00;101507.59;6244196;28;20515;-73
2022/10/30 10:18:45;;;;;;;15.20;6.38;;;;;;;16.17;100.00;101510.38;6244993;28;20056;-73
2022/10/30 10:21:51;;;;;;;9.13;3.08;;;;;;;16.16;100.00;101506.84;6239501;28;20045;-73
2022/10/30 10:24:54;;;;;;;3.65;2.08;;;;;;;16.22;100.00;101511.75;6244426;28;20057;-73
2022/10/30 10:28:08;;;;;;;6.45;2.80;;;;;;;16.28;100.00;101502.56;6242436;28;20053;-74
2022/10/30 10:31:20;;;;;;;7.00;2.70;;;;;;;16.33;100.00;101502.25;6246072;28;20046;-73
2022/10/30 10:34:36;;;;;;;8.38;2.83;;;;;;;16.37;100.00;101498.44;6242996;28;20068;-73
2022/10/30 10:37:48;;;;;;;11.57;2.70;;;;;;;16.46;100.00;101497.84;6246160;28;20413;-73
2022/10/30 10:40:56;;;;;;;7.18;3.25;;;;;;;16.54;100.00;101507.97;6246347;28;20053;-73
2022/10/30 10:44:10;;;;;;;9.30;2.35;;;;;;;16.68;100.00;101508.72;6243538;28;20148;-74
2022/10/30 10:47:29;;;;;;;8.95;3.47;;;;;;;16.76;100.00;101507.38;6242333;28;20045;-74
2022/10/30 10:50:34;;;;;;;9.25;3.42;;;;;;;16.89;100.00;101511.75;6245768;28;20131;-73
2022/10/30 10:53:43;;;;;;;3.95;1.98;;;;;;;16.98;100.00;101504.97;6246236;28;20706;-73
2022/10/30 10:56:48;;;;;;;8.30;2.50;;;;;;;17.12;100.00;101510.22;6246260;28;20045;-73
2022/10/30 10:59:55;;;;;;;6.47;2.72;;;;;;;17.24;100.00;101503.19;6245962;28;20423;-73
2022/10/30 11:03:01;;;;;;;10.30;4.15;;;;;;;17.36;100.00;101496.19;6246462;28;20045;-73
2022/10/30 11:06:17;;;;;;;5.63;2.97;;;;;;;17.47;100.00;101499.78;6248816;28;20048;-73
2022/10/30 11:09:21;;;;;;;11.80;3.03;;;;;;;17.53;100.00;101490.53;6250741;28;20076;-73
2022/10/30 11:12:26;;;;;;;7.15;3.10;;;;;;;17.80;100.00;101490.41;6248877;28;20048;-73
2022/10/30 11:15:47;;;;;;;6.40;1.92;;;;;;;17.95;100.00;101486.66;6248602;28;20393;-73
2022/10/30 11:18:53;;;;;;;5.88;2.55;;;;;;;18.19;100.00;101489.31;6248976;28;20053;-73
2022/10/30 11:21:57;;;;;;;7.30;2.40;;;;;;;18.23;100.00;101484.63;6246499;28;20072;-73
2022/10/30 11:25:18;;;;;;;9.60;1.98;;;;;;;18.25;100.00;101483.53;6248565;28;20112;-73
2022/10/30 11:28:34;;;;;;;10.95;2.22;;;;;;;18.31;100.00;101484.06;6247216;28;20041;-73
2022/10/30 11:31:39;;;;;;;4.28;2.25;;;;;;;18.33;100.00;101475.00;6247095;28;20050;-74
2022/10/30 11:34:40;;;;;;;5.95;2.53;;;;;;;18.46;100.00;101485.59;6249677;28;20416;-73
2022/10/30 11:37:43;;;;;;;4.03;2.20;;;;;;;18.57;100.00;101488.28;6250300;28;20049;-74
2022/10/30 11:40:48;;;;;;;5.28;2.40;;;;;;;18.67;100.00;101486.63;6249649;28;20052;-74
2022/10/30 11:43:49;;;;;;;5.75;2.60;;;;;;;18.83;100.00;101480.16;6249478;28;20053;-74
2022/10/30 11:46:52;;;;;;;5.05;2.15;;;;;;;18.91;100.00;101477.78;6249920;28;20053;-74
2022/10/30 11:49:57;;;;;;;7.32;2.58;;;;;;;18.98;97.58;101482.50;6249566;28;20416;-74
2022/10/30 11:53:01;;;;;;;4.88;2.35;;;;;;;19.07;94.71;101472.94;6249884;28;20063;-74
2022/10/30 11:56:11;;;;;;;6.72;2.05;;;;;;;19.14;95.36;101471.50;6249431;28;20056;-73
2022/10/30 11:59:19;;;;;;;6.50;2.10;;;;;;;19.18;95.89;101475.63;6249804;28;20060;-74
2022/10/30 12:02:26;;;;;;;7.63;2.27;;;;;;;19.18;97.09;101467.66;6249486;28;20041;-74
2022/10/30 12:05:35;;;;;;;4.95;1.90;;;;;;;19.22;96.10;101465.59;6249362;28;20180;-74
2022/10/30 12:08:37;;;;;;;8.07;2.73;;;;;;;19.20;95.46;101460.38;6249637;28;20056;-74
2022/10/30 12:11:42;;;;;;;6.45;2.20;;;;;;;19.26;94.95;101454.56;6249219;28;20056;-74
2022/10/30 12:14:43;;;;;;;6.85;2.38;;;;;;;19.31;94.41;101450.69;6249032;28;20135;-73
2022/10/30 12:17:52;;;;;;;9.30;3.42;;;;;;;19.33;93.98;101446.94;6248600;28;20057;-74
2022/10/30 12:20:56;;;;;;;5.07;2.05;;;;;;;19.35;95.27;101446.78;6249066;28;20045;-74
2022/10/30 12:24:05;;;;;;;5.07;2.33;;;;;;;19.32;96.18;101447.06;6248845;28;20046;-74
2022/10/30 12:27:13;;;;;;;5.95;2.28;;;;;;;19.34;94.32;101439.78;6249227;28;20046;-73
2022/10/30 12:30:17;;;;;;;3.75;1.52;;;;;;;19.37;94.50;101440.38;6248737;28;20053;-73
2022/10/30 12:33:25;;;;;;;5.32;1.80;;;;;;;19.34;96.12;101443.28;6249202;28;20049;-73
2022/10/30 12:36:32;;;;;;;2.83;1.75;;;;;;;19.36;95.60;101438.69;6248527;28;20060;-74
2022/10/30 12:39:45;;;;;;;5.10;2.28;;;;;;;19.40;95.30;101439.31;6246808;28;20045;-74
2022/10/30 12:42:54;;;;;;;10.05;2.75;;;;;;;19.44;93.89;101438.06;6246195;28;20056;-74
2022/10/30 12:46:04;;;;;;;4.67;2.00;;;;;;;19.58;92.66;101443.16;6225953;28;20057;-74
2022/10/30 12:49:14;;;;;;;7.93;2.75;;;;;;;19.68;89.54;101444.16;6223713;28;20060;-74
2022/10/30 12:52:20;;;;;;;12.50;3.30;;;;;;;19.80;88.07;101441.44;6223430;28;20392;-74
2022/10/30 12:55:26;;;;;;;6.97;2.33;;;;;;;19.99;85.79;101431.84;6224043;28;20042;-76
2022/10/30 12:58:37;;;;;;;9.77;1.95;;;;;;;20.02;86.28;101430.72;6224141;28;20053;-76
2022/10/30 13:01:45;;;;;;;7.15;2.22;;;;;;;20.12;86.13;101426.34;6224821;28;20049;-74
2022/10/30 13:04:54;;;;;;;6.00;2.13;;;;;;;20.23;85.20;101428.09;6223840;28;20050;-75
2022/10/30 13:08:06;;;;;;;5.30;2.67;;;;;;;20.30;84.39;101431.09;6223547;28;20054;-74
2022/10/30 13:11:16;;;;;;;4.40;2.05;;;;;;;20.26;85.19;101427.88;6223447;28;20057;-73
2022/10/30 13:14:22;;;;;;;6.13;2.65;;;;;;;20.31;84.27;101424.81;6221316;28;20042;-73
2022/10/30 13:17:24;;;;;;;4.88;2.22;;;;;;;20.36;85.05;101422.59;6223532;28;20057;-72
2022/10/30 13:20:30;;;;;;;7.28;2.00;;;;;;;20.30;84.26;101426.59;6222763;28;20414;-72
2022/10/30 13:23:41;;;;;;;4.03;2.15;;;;;;;20.32;83.64;101415.81;6221678;28;20053;-72
2022/10/30 13:26:52;;;;;;;3.38;2.13;;;;;;;20.34;84.53;101412.03;6212720;28;20528;-72
2022/10/30 13:30:01;;;;;;;6.18;2.35;;;;;;;20.34;84.19;101409.34;6214441;28;20072;-72
2022/10/30 13:33:12;;;;;;;5.40;2.15;;;;;;;20.38;86.50;101405.47;6210341;28;20042;-72
2022/10/30 13:36:22;;;;;;;3.63;1.90;;;;;;;20.38;88.92;101404.63;6207184;28;20513;-72
2022/10/30 13:39:31;;;;;;;6.68;1.92;;;;;;;20.30;91.22;101405.25;6212531;28;20386;-72
2022/10/30 13:42:46;;;;;;;3.92;1.98;;;;;;;20.21;91.98;101412.22;6215386;28;20051;-73
2022/10/30 13:46:02;;;;;;;8.13;2.03;;;;;;;20.09;92.33;101405.25;6209769;28;20057;-72
2022/10/30 13:49:22;;;;;;;2.95;2.13;;;;;;;19.96;93.36;101408.06;6207607;28;20057;-73
2022/10/30 13:52:29;;;;;;;4.45;2.55;;;;;;;19.91;95.92;101407.59;6222044;28;20050;-73
2022/10/30 13:55:34;;;;;;;5.38;1.90;;;;;;;19.80;93.25;101412.94;6222192;28;20073;-72
2022/10/30 13:58:41;;;;;;;5.88;2.20;;;;;;;19.72;94.78;101407.41;6222109;28;20062;-73
2022/10/30 14:01:52;;;;;;;6.00;2.67;;;;;;;19.54;96.22;101409.72;6220964;28;20133;-72
2022/10/30 14:05:00;;;;;;;3.38;1.85;;;;;;;19.41;98.90;101409.84;6221823;28;20073;-73
2022/10/30 14:08:10;;;;;;;5.07;2.00;;;;;;;19.26;100.00;101409.25;6222395;28;20131;-72